Back to Top

Language: 

My Weather Underground Personal Weather Station Historical Data with Graphs...

Delerius Weather Station Historical Data
Daily Summary for March 4, 2017 Units:  English    Metric   Both
« Previous Day
Next Day »
Daily Weekly Monthly Yearly Custom
  High: Low: Average:
Temperature: 53.3 °F 42.7 °F 46.5 °F
Dew Point: 45.2 °F 36.6 °F 41.9 °F
Humidity: 98 % 54 % 85 %
Wind Speed: 11.0 mph 0.0 mph 4.8 mph
Wind Gust: 16.0 mph - -
Wind:- - South
Pressure: 29.19 in 29.07 in -
Precipitation: 0.00 in    
Historical Graphs
 
 
Tabular Data for March 4, 2017
Time Temperature Dew Point Pressure Wind Wind Speed Wind Gust Humidity Rainfall Rate (Hourly) solar Conditions
00:05 45.3 °F 44.8 °F 29.19 in SE 2.0 mph 2.0 mph 98 % 0.00 in 0 W/m2
00:15 45.5 °F 45.0 °F 29.18 in SE 2.0 mph 3.0 mph 98 % 0.00 in 0 W/m2
00:20 45.5 °F 45.0 °F 29.18 in SE 2.0 mph 2.0 mph 98 % 0.00 in 0 W/m2
00:25 45.5 °F 45.0 °F 29.17 in SE 1.0 mph 2.0 mph 98 % 0.00 in 0 W/m2
00:30 45.5 °F 45.0 °F 29.17 in SE 2.0 mph 2.0 mph 98 % 0.00 in 0 W/m2
00:35 45.5 °F 45.0 °F 29.17 in SE 2.0 mph 2.0 mph 98 % 0.00 in 0 W/m2
00:45 45.5 °F 45.0 °F 29.17 in SE 3.0 mph 4.0 mph 98 % 0.00 in 0 W/m2
00:50 45.5 °F 45.0 °F 29.17 in SE 3.0 mph 4.0 mph 98 % 0.00 in 0 W/m2
01:00 45.5 °F 45.0 °F 29.16 in ESE 5.0 mph 5.0 mph 98 % 0.00 in 0 W/m2
01:05 45.4 °F 44.9 °F 29.16 in East 4.0 mph 5.0 mph 98 % 0.00 in 0 W/m2
01:10 45.4 °F 44.9 °F 29.16 in East 4.0 mph 6.0 mph 98 % 0.00 in 0 W/m2
01:15 45.4 °F 44.9 °F 29.17 in East 3.0 mph 6.0 mph 98 % 0.00 in 0 W/m2
01:25 45.4 °F 44.9 °F 29.17 in East 2.0 mph 5.0 mph 98 % 0.00 in 0 W/m2
01:30 45.4 °F 44.9 °F 29.17 in Calm   5.0 mph 98 % 0.00 in 0 W/m2
01:35 45.4 °F 44.9 °F 29.17 in Calm   5.0 mph 98 % 0.00 in 0 W/m2
01:40 45.4 °F 44.9 °F 29.16 in Calm   5.0 mph 98 % 0.00 in 0 W/m2
01:45 45.4 °F 44.9 °F 29.16 in Calm   5.0 mph 98 % 0.00 in 0 W/m2
01:50 45.4 °F 44.9 °F 29.16 in Calm   5.0 mph 98 % 0.00 in 0 W/m2
02:00 45.3 °F 44.8 °F 29.15 in Calm   5.0 mph 98 % 0.00 in 0 W/m2
02:05 45.3 °F 44.8 °F 29.15 in East 1.0 mph 5.0 mph 98 % 0.00 in 0 W/m2
02:15 45.2 °F 44.7 °F 29.15 in East 1.0 mph 5.0 mph 98 % 0.00 in 0 W/m2
02:20 45.2 °F 44.7 °F 29.15 in East 1.0 mph 1.0 mph 98 % 0.00 in 0 W/m2
02:25 45.2 °F 44.7 °F 29.15 in East 2.0 mph 2.0 mph 98 % 0.00 in 0 W/m2
02:35 45.2 °F 44.7 °F 29.15 in East 4.0 mph 5.0 mph 98 % 0.00 in 0 W/m2
02:40 45.2 °F 44.7 °F 29.15 in East 3.0 mph 6.0 mph 98 % 0.00 in 0 W/m2
02:45 45.2 °F 44.7 °F 29.15 in SE 4.0 mph 6.0 mph 98 % 0.00 in 0 W/m2
02:50 45.2 °F 44.7 °F 29.14 in ESE 5.0 mph 5.0 mph 98 % 0.00 in 0 W/m2
02:55 45.2 °F 44.7 °F 29.14 in ESE 3.0 mph 5.0 mph 98 % 0.00 in 0 W/m2
03:05 45.1 °F 44.6 °F 29.14 in ESE 2.0 mph 5.0 mph 98 % 0.00 in 0 W/m2
03:15 45.1 °F 44.6 °F 29.14 in ESE 2.0 mph 5.0 mph 98 % 0.00 in 0 W/m2
03:20 45.1 °F 44.6 °F 29.14 in ESE 1.0 mph 5.0 mph 98 % 0.00 in 0 W/m2
03:25 45.0 °F 44.5 °F 29.13 in ESE 1.0 mph 5.0 mph 98 % 0.00 in 0 W/m2
03:30 45.0 °F 44.5 °F 29.13 in ESE 1.0 mph 5.0 mph 98 % 0.00 in 0 W/m2
03:40 45.0 °F 44.5 °F 29.13 in ESE 1.0 mph 5.0 mph 98 % 0.00 in 0 W/m2
03:45 44.9 °F 44.4 °F 29.13 in ESE 1.0 mph 5.0 mph 98 % 0.00 in 0 W/m2
03:50 44.9 °F 44.4 °F 29.13 in ESE 1.0 mph 5.0 mph 98 % 0.00 in 0 W/m2
03:55 44.8 °F 44.3 °F 29.13 in ESE 1.0 mph 5.0 mph 98 % 0.00 in 0 W/m2
04:00 44.7 °F 44.2 °F 29.13 in ESE 1.0 mph 5.0 mph 98 % 0.00 in 0 W/m2
04:05 44.7 °F 44.2 °F 29.13 in SE 1.0 mph 5.0 mph 98 % 0.00 in 0 W/m2
04:15 44.7 °F 44.2 °F 29.14 in SE 3.0 mph 5.0 mph 98 % 0.00 in 0 W/m2
04:25 44.8 °F 44.3 °F 29.14 in SE 4.0 mph 5.0 mph 98 % 0.00 in 0 W/m2
04:30 44.8 °F 44.3 °F 29.14 in SE 4.0 mph 5.0 mph 98 % 0.00 in 0 W/m2
04:35 44.8 °F 44.3 °F 29.14 in SE 5.0 mph 5.0 mph 98 % 0.00 in 0 W/m2
04:40 44.8 °F 44.3 °F 29.14 in SE 5.0 mph 6.0 mph 98 % 0.00 in 0 W/m2
04:50 44.9 °F 44.4 °F 29.14 in SE 5.0 mph 5.0 mph 98 % 0.00 in 0 W/m2
04:55 44.9 °F 44.4 °F 29.14 in SE 4.0 mph 5.0 mph 98 % 0.00 in 0 W/m2
05:00 44.9 °F 44.4 °F 29.14 in SE 3.0 mph 5.0 mph 98 % 0.00 in 0 W/m2
05:05 44.9 °F 44.4 °F 29.14 in SE 4.0 mph 5.0 mph 98 % 0.00 in 0 W/m2
05:10 44.9 °F 44.4 °F 29.14 in SSE 3.0 mph 3.0 mph 98 % 0.00 in 0 W/m2
05:20 44.9 °F 44.4 °F 29.14 in SSE 2.0 mph 5.0 mph 98 % 0.00 in 0 W/m2
05:25 44.9 °F 44.4 °F 29.14 in SSE 2.0 mph 5.0 mph 98 % 0.00 in 0 W/m2
05:30 44.8 °F 44.3 °F 29.14 in SSE 1.0 mph 1.0 mph 98 % 0.00 in 0 W/m2
05:35 44.8 °F 44.3 °F 29.13 in Calm   5.0 mph 98 % 0.00 in 0 W/m2
05:45 44.7 °F 44.2 °F 29.13 in Calm   5.0 mph 98 % 0.00 in 0 W/m2
05:50 44.7 °F 44.2 °F 29.13 in Calm   5.0 mph 98 % 0.00 in 0 W/m2
06:00 44.5 °F 44.0 °F 29.13 in Calm   5.0 mph 98 % 0.00 in 0 W/m2
06:05 44.4 °F 43.9 °F 29.14 in Calm   5.0 mph 98 % 0.00 in 0 W/m2
06:10 44.4 °F 43.9 °F 29.14 in Calm   5.0 mph 98 % 0.00 in 0 W/m2
06:15 44.4 °F 43.9 °F 29.14 in Calm   5.0 mph 98 % 0.00 in 0 W/m2
06:20 44.4 °F 43.9 °F 29.14 in SSE 1.0 mph 5.0 mph 98 % 0.00 in 0 W/m2
06:30 44.4 °F 43.9 °F 29.14 in SSE 2.0 mph 2.0 mph 98 % 0.00 in 0 W/m2
06:35 44.4 °F 43.9 °F 29.14 in SSE 1.0 mph 5.0 mph 98 % 0.00 in 0 W/m2
06:40 44.3 °F 43.8 °F 29.13 in Calm   5.0 mph 98 % 0.00 in 0 W/m2
06:45 44.2 °F 43.7 °F 29.13 in Calm   5.0 mph 98 % 0.00 in 0 W/m2
06:50 44.1 °F 43.6 °F 29.13 in Calm   5.0 mph 98 % 0.00 in 0 W/m2
07:00 43.8 °F 43.3 °F 29.13 in Calm   5.0 mph 98 % 0.00 in 5 W/m2
07:05 43.7 °F 43.2 °F 29.13 in SSE 1.0 mph 5.0 mph 98 % 0.00 in 9 W/m2
07:15 43.6 °F 43.1 °F 29.13 in West 3.0 mph 5.0 mph 98 % 0.00 in 14 W/m2
07:20 43.4 °F 42.9 °F 29.13 in West 3.0 mph 3.0 mph 98 % 0.00 in 18 W/m2
07:25 43.3 °F 42.8 °F 29.13 in West 1.0 mph 5.0 mph 98 % 0.00 in 19 W/m2
07:35 43.0 °F 42.2 °F 29.13 in Calm   5.0 mph 97 % 0.00 in 25 W/m2
07:40 42.9 °F 42.4 °F 29.13 in Calm   5.0 mph 98 % 0.00 in 30 W/m2
07:45 42.9 °F 42.4 °F 29.13 in Calm   5.0 mph 98 % 0.00 in 37 W/m2
07:50 43.0 °F 42.5 °F 29.13 in Calm   5.0 mph 98 % 0.00 in 46 W/m2
07:55 43.0 °F 42.5 °F 29.13 in Calm   5.0 mph 98 % 0.00 in 51 W/m2
08:00 43.1 °F 42.6 °F 29.13 in Calm   5.0 mph 98 % 0.00 in 51 W/m2
08:10 43.1 °F 42.6 °F 29.13 in Calm   5.0 mph 98 % 0.00 in 63 W/m2
08:20 43.3 °F 42.8 °F 29.13 in Calm   5.0 mph 98 % 0.00 in 70 W/m2
08:25 43.4 °F 42.9 °F 29.13 in Calm   5.0 mph 98 % 0.00 in 74 W/m2
08:30 43.5 °F 43.0 °F 29.13 in Calm   5.0 mph 98 % 0.00 in 77 W/m2
08:35 43.5 °F 43.0 °F 29.13 in Calm   5.0 mph 98 % 0.00 in 77 W/m2
08:45 43.7 °F 43.2 °F 29.13 in Calm   5.0 mph 98 % 0.00 in 84 W/m2
08:50 43.8 °F 43.3 °F 29.13 in Calm   5.0 mph 98 % 0.00 in 84 W/m2
08:55 43.9 °F 43.4 °F 29.13 in Calm   5.0 mph 98 % 0.00 in 91 W/m2
09:00 43.9 °F 43.4 °F 29.13 in Calm   5.0 mph 98 % 0.00 in 93 W/m2
09:05 43.9 °F 43.4 °F 29.13 in West 1.0 mph 5.0 mph 98 % 0.00 in 97 W/m2
09:15 44.1 °F 43.6 °F 29.13 in Calm   5.0 mph 98 % 0.00 in 100 W/m2
09:20 44.1 °F 43.6 °F 29.13 in West 1.0 mph 5.0 mph 98 % 0.00 in 111 W/m2
09:30 44.3 °F 43.8 °F 29.13 in SSE 2.0 mph 2.0 mph 98 % 0.00 in 120 W/m2
09:35 44.4 °F 43.9 °F 29.13 in South 2.0 mph 5.0 mph 98 % 0.00 in 123 W/m2
09:40 44.4 °F 43.9 °F 29.13 in South 2.0 mph 5.0 mph 98 % 0.00 in 142 W/m2
09:50 44.4 °F 43.6 °F 29.13 in South 4.0 mph 4.0 mph 97 % 0.00 in 160 W/m2
09:55 44.6 °F 44.1 °F 29.12 in South 3.0 mph 5.0 mph 98 % 0.00 in 156 W/m2
10:00 44.8 °F 44.0 °F 29.12 in South 2.0 mph 5.0 mph 97 % 0.00 in 158 W/m2
10:05 44.8 °F 44.0 °F 29.12 in South 2.0 mph 5.0 mph 97 % 0.00 in 155 W/m2
10:10 45.0 °F 44.2 °F 29.12 in South 1.0 mph 1.0 mph 97 % 0.00 in 162 W/m2
10:15 45.1 °F 44.3 °F 29.12 in Calm   5.0 mph 97 % 0.00 in 181 W/m2
10:25 45.4 °F 44.6 °F 29.12 in Calm   5.0 mph 97 % 0.00 in 299 W/m2
10:30 45.6 °F 44.5 °F 29.12 in South 1.0 mph 5.0 mph 96 % 0.00 in 359 W/m2
10:35 45.9 °F 44.8 °F 29.12 in SW 4.0 mph 5.0 mph 96 % 0.00 in 482 W/m2
10:40 46.3 °F 44.9 °F 29.12 in SSW 6.0 mph 6.0 mph 95 % 0.00 in 373 W/m2
10:45 46.8 °F 45.2 °F 29.12 in South 5.0 mph 6.0 mph 94 % 0.00 in 508 W/m2
10:55 47.2 °F 44.7 °F 29.12 in SW 4.0 mph 8.0 mph 91 % 0.00 in 540 W/m2
11:05 47.9 °F 44.5 °F 29.12 in WSW 5.0 mph 7.0 mph 88 % 0.00 in 592 W/m2
11:10 48.4 °F 45.0 °F 29.12 in West 5.0 mph 5.0 mph 88 % 0.00 in 563 W/m2
11:15 48.7 °F 44.1 °F 29.12 in South 6.0 mph 6.0 mph 84 % 0.00 in 410 W/m2
11:20 48.8 °F 44.5 °F 29.11 in South 4.0 mph 5.0 mph 85 % 0.00 in 353 W/m2
11:30 48.9 °F 43.6 °F 29.11 in SE 5.0 mph 5.0 mph 82 % 0.00 in 341 W/m2
11:35 49.1 °F 43.5 °F 29.11 in SSW 5.0 mph 5.0 mph 81 % 0.00 in 397 W/m2
11:40 49.3 °F 43.1 °F 29.11 in South 6.0 mph 6.0 mph 79 % 0.00 in 322 W/m2
11:45 49.4 °F 42.8 °F 29.11 in SSW 7.0 mph 10.0 mph 78 % 0.00 in 316 W/m2
11:50 49.4 °F 43.2 °F 29.11 in South 6.0 mph 6.0 mph 79 % 0.00 in 336 W/m2
11:55 49.5 °F 43.3 °F 29.11 in SSW 5.0 mph 6.0 mph 79 % 0.00 in 309 W/m2
12:05 50.0 °F 43.4 °F 29.11 in SSW 4.0 mph 7.0 mph 78 % 0.00 in 327 W/m2
12:10 50.1 °F 42.5 °F 29.11 in South 6.0 mph 7.0 mph 75 % 0.00 in 701 W/m2
12:15 50.6 °F 43.0 °F 29.10 in SW 7.0 mph 8.0 mph 75 % 0.00 in 253 W/m2
12:25 51.4 °F 43.4 °F 29.11 in South 7.0 mph 10.0 mph 74 % 0.00 in 652 W/m2
12:30 51.5 °F 42.4 °F 29.11 in South 7.0 mph 7.0 mph 71 % 0.00 in 394 W/m2
12:40 51.0 °F 41.9 °F 29.10 in SW 8.0 mph 8.0 mph 71 % 0.00 in 533 W/m2
12:45 51.1 °F 42.0 °F 29.10 in SSW 6.0 mph 9.0 mph 71 % 0.00 in 594 W/m2
12:50 51.3 °F 41.8 °F 29.10 in SSW 7.0 mph 7.0 mph 70 % 0.00 in 608 W/m2
12:55 51.6 °F 41.8 °F 29.10 in South 8.0 mph 9.0 mph 69 % 0.00 in 629 W/m2
13:00 51.9 °F 41.3 °F 29.10 in SSE 8.0 mph 9.0 mph 67 % 0.00 in 570 W/m2
13:10 51.9 °F 40.9 °F 29.10 in SSE 7.0 mph 9.0 mph 66 % 0.00 in 436 W/m2
13:15 52.0 °F 39.4 °F 29.10 in South 7.0 mph 11.0 mph 62 % 0.00 in 619 W/m2
13:20 52.2 °F 39.6 °F 29.10 in South 9.0 mph 16.0 mph 62 % 0.00 in 464 W/m2
13:25 52.3 °F 39.2 °F 29.10 in SE 9.0 mph 16.0 mph 61 % 0.00 in 573 W/m2
13:30 52.4 °F 38.9 °F 29.09 in South 9.0 mph 10.0 mph 60 % 0.00 in 563 W/m2
13:40 52.7 °F 40.0 °F 29.10 in South 8.0 mph 8.0 mph 62 % 0.00 in 570 W/m2
13:45 52.9 °F 40.2 °F 29.09 in SSW 8.0 mph 11.0 mph 62 % 0.00 in 584 W/m2
13:55 53.3 °F 39.8 °F 29.09 in SSW 10.0 mph 10.0 mph 60 % 0.00 in 524 W/m2
14:00 52.9 °F 39.4 °F 29.09 in South 10.0 mph 10.0 mph 60 % 0.00 in 490 W/m2
14:05 52.9 °F 39.8 °F 29.09 in South 9.0 mph 10.0 mph 61 % 0.00 in 503 W/m2
14:10 52.8 °F 39.7 °F 29.09 in SE 9.0 mph 9.0 mph 61 % 0.00 in 492 W/m2
14:20 52.9 °F 39.8 °F 29.09 in South 9.0 mph 10.0 mph 61 % 0.00 in 422 W/m2
14:25 52.7 °F 38.3 °F 29.09 in South 10.0 mph 10.0 mph 58 % 0.00 in 515 W/m2
14:30 52.7 °F 38.8 °F 29.09 in SW 10.0 mph 12.0 mph 59 % 0.00 in 492 W/m2
14:35 52.7 °F 38.8 °F 29.09 in South 9.0 mph 12.0 mph 59 % 0.00 in 517 W/m2
14:40 52.2 °F 38.7 °F 29.09 in SE 10.0 mph 10.0 mph 60 % 0.00 in 162 W/m2
14:50 51.5 °F 38.1 °F 29.09 in SSE 9.0 mph 9.0 mph 60 % 0.00 in 211 W/m2
14:55 51.5 °F 38.1 °F 29.09 in South 9.0 mph 10.0 mph 60 % 0.00 in 485 W/m2
15:00 51.8 °F 37.9 °F 29.08 in SW 9.0 mph 11.0 mph 59 % 0.00 in 476 W/m2
15:10 52.8 °F 38.9 °F 29.08 in SE 8.0 mph 8.0 mph 59 % 0.00 in 469 W/m2
15:15 53.0 °F 38.2 °F 29.08 in SSE 9.0 mph 12.0 mph 57 % 0.00 in 457 W/m2
15:25 52.7 °F 37.9 °F 29.08 in SSE 9.0 mph 12.0 mph 57 % 0.00 in 369 W/m2
15:30 52.8 °F 36.6 °F 29.08 in South 10.0 mph 10.0 mph 54 % 0.00 in 113 W/m2
15:35 52.5 °F 37.2 °F 29.08 in South 8.0 mph 10.0 mph 56 % 0.00 in 127 W/m2
15:40 52.2 °F 37.0 °F 29.08 in South 7.0 mph 10.0 mph 56 % 0.00 in 130 W/m2
15:45 52.0 °F 36.8 °F 29.08 in SSW 8.0 mph 10.0 mph 56 % 0.00 in 118 W/m2
15:50 51.7 °F 37.4 °F 29.08 in SSW 8.0 mph 10.0 mph 58 % 0.00 in 95 W/m2
16:00 51.3 °F 37.4 °F 29.08 in South 9.0 mph 9.0 mph 59 % 0.00 in 65 W/m2
16:05 51.1 °F 37.3 °F 29.08 in South 9.0 mph 9.0 mph 59 % 0.00 in 44 W/m2
16:10 51.0 °F 37.6 °F 29.08 in SSW 8.0 mph 15.0 mph 60 % 0.00 in 40 W/m2
16:20 50.7 °F 37.7 °F 29.08 in SSW 7.0 mph 7.0 mph 61 % 0.00 in 39 W/m2
16:25 50.6 °F 37.6 °F 29.08 in SW 8.0 mph 13.0 mph 61 % 0.00 in 42 W/m2
16:35 50.4 °F 37.9 °F 29.07 in South 8.0 mph 9.0 mph 62 % 0.00 in 30 W/m2
16:40 50.4 °F 38.3 °F 29.07 in SE 7.0 mph 7.0 mph 63 % 0.00 in 49 W/m2
16:45 50.4 °F 38.3 °F 29.07 in SSE 6.0 mph 12.0 mph 63 % 0.00 in 58 W/m2
16:50 50.3 °F 38.2 °F 29.08 in SSE 8.0 mph 8.0 mph 63 % 0.00 in 46 W/m2
16:55 50.3 °F 38.2 °F 29.07 in SE 9.0 mph 9.0 mph 63 % 0.00 in 42 W/m2
17:05 50.2 °F 38.5 °F 29.08 in SE 8.0 mph 10.0 mph 64 % 0.00 in 37 W/m2
17:10 50.1 °F 38.4 °F 29.08 in SE 8.0 mph 8.0 mph 64 % 0.00 in 30 W/m2
17:15 50.1 °F 38.4 °F 29.07 in SE 8.0 mph 8.0 mph 64 % 0.00 in 26 W/m2
17:20 50.0 °F 38.3 °F 29.08 in SE 8.0 mph 9.0 mph 64 % 0.00 in 18 W/m2
17:25 50.0 °F 38.3 °F 29.08 in South 9.0 mph 9.0 mph 64 % 0.00 in 12 W/m2
17:30 49.9 °F 38.6 °F 29.08 in SE 10.0 mph 10.0 mph 65 % 0.00 in 11 W/m2
17:40 49.7 °F 38.8 °F 29.08 in SSE 10.0 mph 16.0 mph 66 % 0.00 in 0 W/m2
17:45 49.5 °F 39.4 °F 29.09 in South 11.0 mph 16.0 mph 68 % 0.00 in 0 W/m2
17:55 47.9 °F 40.7 °F 29.09 in SSE 10.0 mph 12.0 mph 76 % 0.00 in 0 W/m2
18:00 47.3 °F 40.8 °F 29.09 in SSE 8.0 mph 8.0 mph 78 % 0.00 in 0 W/m2
18:05 46.9 °F 40.7 °F 29.09 in SSE 7.0 mph 8.0 mph 79 % 0.00 in 0 W/m2
18:15 46.6 °F 41.1 °F 29.09 in SSE 7.0 mph 8.0 mph 81 % 0.00 in 0 W/m2
18:20 46.5 °F 41.3 °F 29.09 in SSE 7.0 mph 7.0 mph 82 % 0.00 in 0 W/m2
18:25 46.4 °F 41.2 °F 29.09 in SE 8.0 mph 8.0 mph 82 % 0.00 in 0 W/m2
18:30 46.3 °F 41.1 °F 29.09 in SE 8.0 mph 9.0 mph 82 % 0.00 in 0 W/m2
18:35 46.2 °F 41.3 °F 29.09 in SE 8.0 mph 9.0 mph 83 % 0.00 in 0 W/m2
18:45 45.9 °F 41.0 °F 29.09 in SSE 6.0 mph 8.0 mph 83 % 0.00 in 0 W/m2
18:50 45.7 °F 41.1 °F 29.08 in SE 6.0 mph 6.0 mph 84 % 0.00 in 0 W/m2
18:55 45.6 °F 41.0 °F 29.09 in SE 6.0 mph 6.0 mph 84 % 0.00 in 0 W/m2
19:00 45.4 °F 41.2 °F 29.09 in South 7.0 mph 7.0 mph 85 % 0.00 in 0 W/m2
19:05 45.3 °F 41.1 °F 29.09 in SSE 6.0 mph 7.0 mph 85 % 0.00 in 0 W/m2
19:10 45.2 °F 41.3 °F 29.09 in South 6.0 mph 6.0 mph 86 % 0.00 in 0 W/m2
19:20 45.1 °F 41.2 °F 29.09 in SSW 6.0 mph 6.0 mph 86 % 0.00 in 0 W/m2
19:30 45.3 °F 41.4 °F 29.09 in SSW 6.0 mph 6.0 mph 86 % 0.00 in 0 W/m2
19:35 45.4 °F 41.5 °F 29.09 in SSW 6.0 mph 7.0 mph 86 % 0.00 in 0 W/m2
19:40 45.4 °F 41.2 °F 29.09 in SSW 7.0 mph 7.0 mph 85 % 0.00 in 0 W/m2
19:45 45.5 °F 41.3 °F 29.09 in SSW 6.0 mph 8.0 mph 85 % 0.00 in 0 W/m2
19:55 45.4 °F 41.2 °F 29.09 in SSW 7.0 mph 8.0 mph 85 % 0.00 in 0 W/m2
20:00 45.3 °F 41.1 °F 29.09 in South 8.0 mph 8.0 mph 85 % 0.00 in 0 W/m2
20:05 45.2 °F 41.0 °F 29.09 in SSW 9.0 mph 13.0 mph 85 % 0.00 in 0 W/m2
20:10 45.2 °F 41.0 °F 29.09 in South 8.0 mph 8.0 mph 85 % 0.00 in 0 W/m2
20:15 45.1 °F 41.2 °F 29.09 in SSW 6.0 mph 8.0 mph 86 % 0.00 in 0 W/m2
20:25 44.9 °F 41.0 °F 29.09 in South 6.0 mph 10.0 mph 86 % 0.00 in 0 W/m2
20:30 44.8 °F 40.9 °F 29.09 in South 6.0 mph 7.0 mph 86 % 0.00 in 0 W/m2
20:35 44.7 °F 40.8 °F 29.10 in SSW 7.0 mph 8.0 mph 86 % 0.00 in 0 W/m2
20:45 44.4 °F 40.8 °F 29.10 in SSW 6.0 mph 8.0 mph 87 % 0.00 in 0 W/m2
20:50 44.4 °F 40.8 °F 29.10 in SSW 8.0 mph 10.0 mph 87 % 0.00 in 0 W/m2
21:00 44.4 °F 40.8 °F 29.10 in WSW 9.0 mph 9.0 mph 87 % 0.00 in 0 W/m2
21:05 44.2 °F 40.3 °F 29.10 in WSW 8.0 mph 9.0 mph 86 % 0.00 in 0 W/m2
21:10 44.1 °F 39.9 °F 29.10 in West 8.0 mph 8.0 mph 85 % 0.00 in 0 W/m2
21:15 44.1 °F 39.9 °F 29.10 in SW 7.0 mph 8.0 mph 85 % 0.00 in 0 W/m2
21:20 43.9 °F 39.4 °F 29.10 in WSW 8.0 mph 8.0 mph 84 % 0.00 in 0 W/m2
21:25 43.8 °F 39.3 °F 29.10 in WSW 8.0 mph 8.0 mph 84 % 0.00 in 0 W/m2
21:35 43.5 °F 39.0 °F 29.10 in SW 5.0 mph 7.0 mph 84 % 0.00 in 0 W/m2
21:40 43.4 °F 38.9 °F 29.10 in SW 5.0 mph 8.0 mph 84 % 0.00 in 0 W/m2
21:45 43.3 °F 38.8 °F 29.11 in SW 5.0 mph 8.0 mph 84 % 0.00 in 0 W/m2
21:50 43.1 °F 38.6 °F 29.11 in SW 5.0 mph 6.0 mph 84 % 0.00 in 0 W/m2
21:55 43.0 °F 38.5 °F 29.11 in SW 4.0 mph 6.0 mph 84 % 0.00 in 0 W/m2
22:05 42.9 °F 38.7 °F 29.11 in SW 4.0 mph 6.0 mph 85 % 0.00 in 0 W/m2
22:10 42.9 °F 38.7 °F 29.11 in WSW 5.0 mph 5.0 mph 85 % 0.00 in 0 W/m2
22:20 42.9 °F 38.7 °F 29.11 in SW 6.0 mph 6.0 mph 85 % 0.00 in 0 W/m2
22:25 42.9 °F 38.7 °F 29.11 in SSW 6.0 mph 9.0 mph 85 % 0.00 in 0 W/m2
22:30 42.9 °F 38.7 °F 29.12 in SW 6.0 mph 6.0 mph 85 % 0.00 in 0 W/m2
22:40 43.1 °F 39.2 °F 29.12 in SSW 7.0 mph 8.0 mph 86 % 0.00 in 0 W/m2
22:45 43.2 °F 39.3 °F 29.12 in SW 6.0 mph 8.0 mph 86 % 0.00 in 0 W/m2
22:50 43.1 °F 39.2 °F 29.12 in SSW 6.0 mph 8.0 mph 86 % 0.00 in 0 W/m2
22:55 43.0 °F 39.1 °F 29.12 in SW 6.0 mph 8.0 mph 86 % 0.00 in 0 W/m2
23:00 42.8 °F 38.9 °F 29.12 in SW 6.0 mph 6.0 mph 86 % 0.00 in 0 W/m2
23:05 42.7 °F 38.8 °F 29.12 in SW 6.0 mph 6.0 mph 86 % 0.00 in 0 W/m2
23:15 42.8 °F 39.2 °F 29.12 in WSW 7.0 mph 7.0 mph 87 % 0.00 in 0 W/m2
23:20 42.8 °F 39.2 °F 29.13 in SW 8.0 mph 12.0 mph 87 % 0.00 in 0 W/m2
23:25 42.9 °F 39.3 °F 29.13 in WSW 9.0 mph 15.0 mph 87 % 0.00 in 0 W/m2
23:30 43.0 °F 39.4 °F 29.13 in SW 11.0 mph 13.0 mph 87 % 0.00 in 0 W/m2
23:40 43.0 °F 39.4 °F 29.13 in WSW 11.0 mph 11.0 mph 87 % 0.00 in 0 W/m2
23:45 43.0 °F 39.4 °F 29.13 in WSW 9.0 mph 11.0 mph 87 % 0.00 in 0 W/m2
23:55 42.8 °F 39.2 °F 29.13 in WSW 7.0 mph 8.0 mph 87 % 0.00 in 0 W/m2
Delerius-Weather
Compliments of Weather Underground - 2 mb

Data updates at regular intervals.